sensor_id;sensor_type;location;lat;lon;timestamp;P1;durP1;ratioP1;P2;durP2;ratioP2
75885;SDS011;64561;44.018;10.144;2023-03-01T00:01:07;9.75;;;5.88;;
75885;SDS011;64561;44.018;10.144;2023-03-01T00:03:40;9.63;;;5.43;;
75885;SDS011;64561;44.018;10.144;2023-03-01T00:06:07;11.30;;;5.78;;
75885;SDS011;64561;44.018;10.144;2023-03-01T00:08:35;11.48;;;7.20;;
75885;SDS011;64561;44.018;10.144;2023-03-01T00:13:34;11.27;;;6.15;;
75885;SDS011;64561;44.018;10.144;2023-03-01T00:16:06;8.85;;;5.30;;
75885;SDS011;64561;44.018;10.144;2023-03-01T00:18:34;6.70;;;4.80;;
75885;SDS011;64561;44.018;10.144;2023-03-01T00:21:01;9.68;;;5.68;;
75885;SDS011;64561;44.018;10.144;2023-03-01T00:23:28;8.05;;;5.55;;
75885;SDS011;64561;44.018;10.144;2023-03-01T00:25:55;9.23;;;5.90;;
75885;SDS011;64561;44.018;10.144;2023-03-01T00:28:22;9.13;;;6.18;;
75885;SDS011;64561;44.018;10.144;2023-03-01T00:30:49;8.45;;;5.70;;
75885;SDS011;64561;44.018;10.144;2023-03-01T00:33:16;11.32;;;6.60;;
75885;SDS011;64561;44.018;10.144;2023-03-01T00:35:43;9.32;;;5.57;;
75885;SDS011;64561;44.018;10.144;2023-03-01T00:38:11;8.15;;;5.90;;
75885;SDS011;64561;44.018;10.144;2023-03-01T00:40:37;9.57;;;6.15;;
75885;SDS011;64561;44.018;10.144;2023-03-01T00:43:04;10.57;;;5.30;;
75885;SDS011;64561;44.018;10.144;2023-03-01T00:45:32;10.38;;;5.70;;
75885;SDS011;64561;44.018;10.144;2023-03-01T00:47:59;8.40;;;5.63;;
75885;SDS011;64561;44.018;10.144;2023-03-01T00:50:26;10.27;;;6.70;;
75885;SDS011;64561;44.018;10.144;2023-03-01T00:52:54;8.45;;;6.05;;
75885;SDS011;64561;44.018;10.144;2023-03-01T00:55:22;7.93;;;5.82;;
75885;SDS011;64561;44.018;10.144;2023-03-01T00:57:50;9.35;;;6.28;;
75885;SDS011;64561;44.018;10.144;2023-03-01T01:00:17;7.63;;;5.50;;
75885;SDS011;64561;44.018;10.144;2023-03-01T01:02:46;9.60;;;6.13;;
75885;SDS011;64561;44.018;10.144;2023-03-01T01:05:13;10.40;;;6.93;;
75885;SDS011;64561;44.018;10.144;2023-03-01T01:07:40;8.75;;;6.03;;
75885;SDS011;64561;44.018;10.144;2023-03-01T01:10:07;10.40;;;6.47;;
75885;SDS011;64561;44.018;10.144;2023-03-01T01:12:39;8.00;;;5.88;;
75885;SDS011;64561;44.018;10.144;2023-03-01T01:15:06;10.20;;;5.45;;
75885;SDS011;64561;44.018;10.144;2023-03-01T01:17:34;8.15;;;5.13;;
75885;SDS011;64561;44.018;10.144;2023-03-01T01:20:01;8.20;;;4.85;;
75885;SDS011;64561;44.018;10.144;2023-03-01T01:22:28;8.50;;;5.03;;
75885;SDS011;64561;44.018;10.144;2023-03-01T01:24:55;10.48;;;6.30;;
75885;SDS011;64561;44.018;10.144;2023-03-01T01:27:22;6.50;;;4.68;;
75885;SDS011;64561;44.018;10.144;2023-03-01T01:29:49;6.72;;;5.32;;
75885;SDS011;64561;44.018;10.144;2023-03-01T01:32:16;8.05;;;5.35;;
75885;SDS011;64561;44.018;10.144;2023-03-01T01:34:42;8.00;;;5.18;;
75885;SDS011;64561;44.018;10.144;2023-03-01T01:37:10;10.80;;;6.97;;
75885;SDS011;64561;44.018;10.144;2023-03-01T01:39:37;8.20;;;5.82;;
75885;SDS011;64561;44.018;10.144;2023-03-01T01:42:04;11.40;;;6.90;;
75885;SDS011;64561;44.018;10.144;2023-03-01T01:44:33;8.20;;;6.28;;
75885;SDS011;64561;44.018;10.144;2023-03-01T01:47:04;10.38;;;7.05;;
75885;SDS011;64561;44.018;10.144;2023-03-01T01:49:53;14.13;;;9.23;;
75885;SDS011;64561;44.018;10.144;2023-03-01T01:52:29;17.92;;;13.07;;
75885;SDS011;64561;44.018;10.144;2023-03-01T01:55:05;15.70;;;11.50;;
75885;SDS011;64561;44.018;10.144;2023-03-01T02:00:36;11.82;;;8.23;;
75885;SDS011;64561;44.018;10.144;2023-03-01T02:03:10;8.00;;;5.63;;
75885;SDS011;64561;44.018;10.144;2023-03-01T02:08:21;9.48;;;6.30;;
75885;SDS011;64561;44.018;10.144;2023-03-01T02:10:51;9.65;;;6.72;;
75885;SDS011;64561;44.018;10.144;2023-03-01T02:13:19;6.90;;;4.00;;
75885;SDS011;64561;44.018;10.144;2023-03-01T02:15:46;6.47;;;4.30;;
75885;SDS011;64561;44.018;10.144;2023-03-01T02:18:17;5.32;;;3.80;;
75885;SDS011;64561;44.018;10.144;2023-03-01T02:23:16;5.60;;;4.03;;
75885;SDS011;64561;44.018;10.144;2023-03-01T02:25:46;6.07;;;3.92;;
75885;SDS011;64561;44.018;10.144;2023-03-01T02:30:42;5.05;;;3.92;;
75885;SDS011;64561;44.018;10.144;2023-03-01T02:33:30;6.63;;;3.83;;
75885;SDS011;64561;44.018;10.144;2023-03-01T02:36:00;6.50;;;4.72;;
75885;SDS011;64561;44.018;10.144;2023-03-01T02:38:29;5.45;;;4.18;;
75885;SDS011;64561;44.018;10.144;2023-03-01T02:40:58;6.35;;;4.20;;
75885;SDS011;64561;44.018;10.144;2023-03-01T02:43:27;6.35;;;4.57;;
75885;SDS011;64561;44.018;10.144;2023-03-01T02:46:07;7.53;;;4.03;;
75885;SDS011;64561;44.018;10.144;2023-03-01T02:48:43;5.38;;;3.55;;
75885;SDS011;64561;44.018;10.144;2023-03-01T02:56:39;6.97;;;4.13;;
75885;SDS011;64561;44.018;10.144;2023-03-01T02:59:08;6.97;;;4.22;;
75885;SDS011;64561;44.018;10.144;2023-03-01T03:01:36;8.18;;;4.38;;
75885;SDS011;64561;44.018;10.144;2023-03-01T03:04:05;5.80;;;4.13;;
75885;SDS011;64561;44.018;10.144;2023-03-01T03:06:33;7.22;;;4.43;;
75885;SDS011;64561;44.018;10.144;2023-03-01T03:09:00;8.05;;;4.70;;
75885;SDS011;64561;44.018;10.144;2023-03-01T03:11:27;6.45;;;4.13;;
75885;SDS011;64561;44.018;10.144;2023-03-01T03:13:54;8.73;;;5.43;;
75885;SDS011;64561;44.018;10.144;2023-03-01T03:16:22;7.43;;;4.80;;
75885;SDS011;64561;44.018;10.144;2023-03-01T03:18:49;9.15;;;4.35;;
75885;SDS011;64561;44.018;10.144;2023-03-01T03:21:16;6.60;;;4.53;;
75885;SDS011;64561;44.018;10.144;2023-03-01T03:23:43;8.52;;;4.72;;
75885;SDS011;64561;44.018;10.144;2023-03-01T03:26:10;8.75;;;5.05;;
75885;SDS011;64561;44.018;10.144;2023-03-01T03:28:39;7.22;;;4.78;;
75885;SDS011;64561;44.018;10.144;2023-03-01T03:31:07;7.68;;;5.00;;
75885;SDS011;64561;44.018;10.144;2023-03-01T03:33:34;7.82;;;5.32;;
75885;SDS011;64561;44.018;10.144;2023-03-01T03:36:01;10.27;;;5.30;;
75885;SDS011;64561;44.018;10.144;2023-03-01T03:38:28;8.95;;;5.38;;
75885;SDS011;64561;44.018;10.144;2023-03-01T03:41:02;7.53;;;4.05;;
75885;SDS011;64561;44.018;10.144;2023-03-01T03:43:35;8.07;;;5.20;;
75885;SDS011;64561;44.018;10.144;2023-03-01T03:46:03;10.60;;;5.82;;
75885;SDS011;64561;44.018;10.144;2023-03-01T03:48:36;7.53;;;5.20;;
75885;SDS011;64561;44.018;10.144;2023-03-01T03:51:04;7.40;;;5.28;;
75885;SDS011;64561;44.018;10.144;2023-03-01T03:53:32;12.35;;;7.07;;
75885;SDS011;64561;44.018;10.144;2023-03-01T03:55:59;10.35;;;6.70;;
75885;SDS011;64561;44.018;10.144;2023-03-01T03:58:26;14.85;;;9.10;;
75885;SDS011;64561;44.018;10.144;2023-03-01T04:00:54;13.48;;;7.32;;
75885;SDS011;64561;44.018;10.144;2023-03-01T04:03:23;13.85;;;8.30;;
75885;SDS011;64561;44.018;10.144;2023-03-01T04:05:52;10.13;;;7.35;;
75885;SDS011;64561;44.018;10.144;2023-03-01T04:08:20;10.98;;;6.72;;
75885;SDS011;64561;44.018;10.144;2023-03-01T04:10:50;11.60;;;6.15;;
75885;SDS011;64561;44.018;10.144;2023-03-01T04:13:20;12.50;;;6.50;;
75885;SDS011;64561;44.018;10.144;2023-03-01T04:15:49;9.18;;;5.90;;
75885;SDS011;64561;44.018;10.144;2023-03-01T04:18:17;10.10;;;6.22;;
75885;SDS011;64561;44.018;10.144;2023-03-01T04:20:46;8.77;;;6.00;;
75885;SDS011;64561;44.018;10.144;2023-03-01T04:23:15;10.38;;;5.97;;
75885;SDS011;64561;44.018;10.144;2023-03-01T04:25:47;9.63;;;6.30;;
75885;SDS011;64561;44.018;10.144;2023-03-01T04:28:28;9.60;;;6.93;;
75885;SDS011;64561;44.018;10.144;2023-03-01T04:31:06;13.13;;;6.60;;
75885;SDS011;64561;44.018;10.144;2023-03-01T04:36:12;9.93;;;7.32;;
75885;SDS011;64561;44.018;10.144;2023-03-01T04:38:41;11.02;;;7.10;;
75885;SDS011;64561;44.018;10.144;2023-03-01T04:41:09;12.77;;;6.35;;
75885;SDS011;64561;44.018;10.144;2023-03-01T04:43:37;9.35;;;6.13;;
75885;SDS011;64561;44.018;10.144;2023-03-01T04:46:06;10.20;;;5.68;;
75885;SDS011;64561;44.018;10.144;2023-03-01T04:48:41;8.82;;;5.50;;
75885;SDS011;64561;44.018;10.144;2023-03-01T04:51:09;7.53;;;4.90;;
75885;SDS011;64561;44.018;10.144;2023-03-01T04:53:40;8.13;;;4.95;;
75885;SDS011;64561;44.018;10.144;2023-03-01T04:56:08;8.35;;;4.38;;
75885;SDS011;64561;44.018;10.144;2023-03-01T04:58:36;9.68;;;5.15;;
75885;SDS011;64561;44.018;10.144;2023-03-01T05:01:07;7.28;;;4.10;;
75885;SDS011;64561;44.018;10.144;2023-03-01T05:03:42;9.05;;;4.75;;
75885;SDS011;64561;44.018;10.144;2023-03-01T05:06:13;8.50;;;4.50;;
75885;SDS011;64561;44.018;10.144;2023-03-01T05:08:41;6.10;;;4.53;;
75885;SDS011;64561;44.018;10.144;2023-03-01T05:11:09;6.82;;;3.83;;
75885;SDS011;64561;44.018;10.144;2023-03-01T05:13:37;6.20;;;3.70;;
75885;SDS011;64561;44.018;10.144;2023-03-01T05:16:06;6.72;;;4.07;;
75885;SDS011;64561;44.018;10.144;2023-03-01T05:18:38;5.75;;;3.75;;
75885;SDS011;64561;44.018;10.144;2023-03-01T05:21:10;4.95;;;3.55;;
75885;SDS011;64561;44.018;10.144;2023-03-01T05:23:39;5.53;;;3.30;;
75885;SDS011;64561;44.018;10.144;2023-03-01T05:26:06;5.53;;;3.05;;
75885;SDS011;64561;44.018;10.144;2023-03-01T05:28:47;7.25;;;3.13;;
75885;SDS011;64561;44.018;10.144;2023-03-01T05:31:14;7.07;;;3.38;;
75885;SDS011;64561;44.018;10.144;2023-03-01T05:33:42;5.93;;;3.67;;
75885;SDS011;64561;44.018;10.144;2023-03-01T05:36:09;7.05;;;3.10;;
75885;SDS011;64561;44.018;10.144;2023-03-01T05:38:36;5.65;;;3.22;;
75885;SDS011;64561;44.018;10.144;2023-03-01T05:41:03;4.75;;;2.90;;
75885;SDS011;64561;44.018;10.144;2023-03-01T05:43:31;5.78;;;3.20;;
75885;SDS011;64561;44.018;10.144;2023-03-01T05:46:01;7.22;;;4.15;;
75885;SDS011;64561;44.018;10.144;2023-03-01T05:48:28;5.53;;;3.38;;
75885;SDS011;64561;44.018;10.144;2023-03-01T05:50:55;5.00;;;3.67;;
75885;SDS011;64561;44.018;10.144;2023-03-01T05:53:27;5.05;;;3.25;;
75885;SDS011;64561;44.018;10.144;2023-03-01T05:55:53;7.13;;;4.00;;
75885;SDS011;64561;44.018;10.144;2023-03-01T05:58:20;5.80;;;3.38;;
75885;SDS011;64561;44.018;10.144;2023-03-01T06:00:48;5.05;;;3.22;;
75885;SDS011;64561;44.018;10.144;2023-03-01T06:03:16;5.55;;;3.00;;
75885;SDS011;64561;44.018;10.144;2023-03-01T06:05:43;5.03;;;3.25;;
75885;SDS011;64561;44.018;10.144;2023-03-01T06:08:11;4.57;;;3.25;;
75885;SDS011;64561;44.018;10.144;2023-03-01T06:10:38;5.40;;;3.58;;
75885;SDS011;64561;44.018;10.144;2023-03-01T06:13:05;5.05;;;3.70;;
75885;SDS011;64561;44.018;10.144;2023-03-01T06:15:32;6.10;;;3.72;;
75885;SDS011;64561;44.018;10.144;2023-03-01T06:17:59;4.60;;;3.13;;
75885;SDS011;64561;44.018;10.144;2023-03-01T06:20:26;5.30;;;3.33;;
75885;SDS011;64561;44.018;10.144;2023-03-01T06:22:54;4.93;;;3.15;;
75885;SDS011;64561;44.018;10.144;2023-03-01T06:25:23;4.40;;;2.60;;
75885;SDS011;64561;44.018;10.144;2023-03-01T06:27:51;4.60;;;3.00;;
75885;SDS011;64561;44.018;10.144;2023-03-01T06:30:21;6.63;;;4.55;;
75885;SDS011;64561;44.018;10.144;2023-03-01T06:32:50;8.00;;;5.00;;
75885;SDS011;64561;44.018;10.144;2023-03-01T06:35:17;10.07;;;6.30;;
75885;SDS011;64561;44.018;10.144;2023-03-01T06:37:45;9.10;;;5.53;;
75885;SDS011;64561;44.018;10.144;2023-03-01T06:40:13;6.90;;;4.65;;
75885;SDS011;64561;44.018;10.144;2023-03-01T06:42:42;6.68;;;4.00;;
75885;SDS011;64561;44.018;10.144;2023-03-01T06:45:13;3.92;;;2.75;;
75885;SDS011;64561;44.018;10.144;2023-03-01T06:47:41;4.03;;;2.60;;
75885;SDS011;64561;44.018;10.144;2023-03-01T06:50:08;6.05;;;2.65;;
75885;SDS011;64561;44.018;10.144;2023-03-01T06:52:35;5.10;;;3.65;;
75885;SDS011;64561;44.018;10.144;2023-03-01T06:55:02;4.47;;;2.80;;
75885;SDS011;64561;44.018;10.144;2023-03-01T06:57:30;4.63;;;2.65;;
75885;SDS011;64561;44.018;10.144;2023-03-01T06:59:57;4.47;;;2.97;;
75885;SDS011;64561;44.018;10.144;2023-03-01T07:02:24;4.22;;;3.10;;
75885;SDS011;64561;44.018;10.144;2023-03-01T07:04:51;4.43;;;2.65;;
75885;SDS011;64561;44.018;10.144;2023-03-01T07:07:18;6.43;;;3.67;;
75885;SDS011;64561;44.018;10.144;2023-03-01T07:09:46;5.20;;;3.45;;
75885;SDS011;64561;44.018;10.144;2023-03-01T07:12:14;5.25;;;3.85;;
75885;SDS011;64561;44.018;10.144;2023-03-01T07:14:41;5.15;;;3.38;;
75885;SDS011;64561;44.018;10.144;2023-03-01T07:17:10;5.93;;;3.38;;
75885;SDS011;64561;44.018;10.144;2023-03-01T07:19:36;5.47;;;3.50;;
75885;SDS011;64561;44.018;10.144;2023-03-01T07:22:03;7.68;;;4.25;;
75885;SDS011;64561;44.018;10.144;2023-03-01T07:24:30;5.07;;;2.90;;
75885;SDS011;64561;44.018;10.144;2023-03-01T07:26:57;6.78;;;3.30;;
75885;SDS011;64561;44.018;10.144;2023-03-01T07:29:24;3.38;;;2.40;;
75885;SDS011;64561;44.018;10.144;2023-03-01T07:31:51;3.72;;;2.50;;
75885;SDS011;64561;44.018;10.144;2023-03-01T07:34:18;5.20;;;2.88;;
75885;SDS011;64561;44.018;10.144;2023-03-01T07:36:45;3.95;;;2.45;;
75885;SDS011;64561;44.018;10.144;2023-03-01T07:39:11;3.63;;;2.33;;
75885;SDS011;64561;44.018;10.144;2023-03-01T07:41:38;4.85;;;2.53;;
75885;SDS011;64561;44.018;10.144;2023-03-01T07:44:05;5.82;;;3.30;;
75885;SDS011;64561;44.018;10.144;2023-03-01T07:46:32;6.95;;;3.40;;
75885;SDS011;64561;44.018;10.144;2023-03-01T07:48:59;6.53;;;3.38;;
75885;SDS011;64561;44.018;10.144;2023-03-01T07:51:26;4.47;;;2.72;;
75885;SDS011;64561;44.018;10.144;2023-03-01T07:53:53;6.00;;;3.40;;
75885;SDS011;64561;44.018;10.144;2023-03-01T07:56:19;5.30;;;2.97;;
75885;SDS011;64561;44.018;10.144;2023-03-01T07:58:48;4.72;;;2.95;;
75885;SDS011;64561;44.018;10.144;2023-03-01T08:01:17;4.15;;;2.67;;
75885;SDS011;64561;44.018;10.144;2023-03-01T08:03:45;4.00;;;2.50;;
75885;SDS011;64561;44.018;10.144;2023-03-01T08:06:14;5.15;;;2.53;;
75885;SDS011;64561;44.018;10.144;2023-03-01T08:08:42;3.80;;;2.40;;
75885;SDS011;64561;44.018;10.144;2023-03-01T08:11:14;4.13;;;2.85;;
75885;SDS011;64561;44.018;10.144;2023-03-01T08:13:41;5.03;;;3.05;;
75885;SDS011;64561;44.018;10.144;2023-03-01T08:16:10;8.48;;;4.80;;
75885;SDS011;64561;44.018;10.144;2023-03-01T08:18:38;7.93;;;4.15;;
75885;SDS011;64561;44.018;10.144;2023-03-01T08:21:11;5.78;;;3.22;;
75885;SDS011;64561;44.018;10.144;2023-03-01T08:23:40;5.38;;;3.20;;
75885;SDS011;64561;44.018;10.144;2023-03-01T08:26:15;5.30;;;3.17;;
75885;SDS011;64561;44.018;10.144;2023-03-01T08:28:43;4.80;;;2.88;;
75885;SDS011;64561;44.018;10.144;2023-03-01T08:33:45;4.63;;;3.13;;
75885;SDS011;64561;44.018;10.144;2023-03-01T08:36:17;3.90;;;2.60;;
75885;SDS011;64561;44.018;10.144;2023-03-01T08:38:44;4.55;;;2.97;;
75885;SDS011;64561;44.018;10.144;2023-03-01T08:41:12;7.47;;;3.70;;
75885;SDS011;64561;44.018;10.144;2023-03-01T08:43:39;5.75;;;3.38;;
75885;SDS011;64561;44.018;10.144;2023-03-01T08:46:06;6.32;;;3.38;;
75885;SDS011;64561;44.018;10.144;2023-03-01T08:48:33;6.07;;;3.97;;
75885;SDS011;64561;44.018;10.144;2023-03-01T08:51:07;9.43;;;4.40;;
75885;SDS011;64561;44.018;10.144;2023-03-01T08:53:38;6.28;;;3.65;;
75885;SDS011;64561;44.018;10.144;2023-03-01T08:56:05;8.52;;;4.10;;
75885;SDS011;64561;44.018;10.144;2023-03-01T08:58:33;7.60;;;4.55;;
75885;SDS011;64561;44.018;10.144;2023-03-01T09:00:59;6.45;;;3.90;;
75885;SDS011;64561;44.018;10.144;2023-03-01T09:03:27;10.27;;;5.05;;
75885;SDS011;64561;44.018;10.144;2023-03-01T09:05:53;7.22;;;4.20;;
75885;SDS011;64561;44.018;10.144;2023-03-01T09:08:26;6.82;;;3.90;;
75885;SDS011;64561;44.018;10.144;2023-03-01T09:10:54;5.30;;;2.95;;
75885;SDS011;64561;44.018;10.144;2023-03-01T09:13:21;8.52;;;4.25;;
75885;SDS011;64561;44.018;10.144;2023-03-01T09:15:51;4.75;;;3.80;;
75885;SDS011;64561;44.018;10.144;2023-03-01T09:18:18;6.72;;;4.20;;
75885;SDS011;64561;44.018;10.144;2023-03-01T09:20:45;7.80;;;4.43;;
75885;SDS011;64561;44.018;10.144;2023-03-01T09:23:11;6.95;;;4.50;;
75885;SDS011;64561;44.018;10.144;2023-03-01T09:25:38;6.10;;;4.03;;
75885;SDS011;64561;44.018;10.144;2023-03-01T09:28:05;7.07;;;4.45;;
75885;SDS011;64561;44.018;10.144;2023-03-01T09:30:32;6.45;;;3.88;;
75885;SDS011;64561;44.018;10.144;2023-03-01T09:32:59;6.63;;;3.65;;
75885;SDS011;64561;44.018;10.144;2023-03-01T09:35:26;5.97;;;3.95;;
75885;SDS011;64561;44.018;10.144;2023-03-01T09:37:53;5.18;;;3.97;;
75885;SDS011;64561;44.018;10.144;2023-03-01T09:40:21;9.43;;;4.60;;
75885;SDS011;64561;44.018;10.144;2023-03-01T09:43:05;9.23;;;5.68;;
75885;SDS011;64561;44.018;10.144;2023-03-01T09:45:41;8.07;;;6.18;;
75885;SDS011;64561;44.018;10.144;2023-03-01T09:48:16;8.63;;;5.30;;
75885;SDS011;64561;44.018;10.144;2023-03-01T09:50:46;7.32;;;5.00;;
75885;SDS011;64561;44.018;10.144;2023-03-01T09:53:14;7.85;;;4.95;;
75885;SDS011;64561;44.018;10.144;2023-03-01T09:55:59;8.20;;;4.93;;
75885;SDS011;64561;44.018;10.144;2023-03-01T10:06:49;7.95;;;5.05;;
75885;SDS011;64561;44.018;10.144;2023-03-01T10:09:27;9.30;;;5.55;;
75885;SDS011;64561;44.018;10.144;2023-03-01T10:12:00;9.30;;;5.18;;
75885;SDS011;64561;44.018;10.144;2023-03-01T10:20:24;8.35;;;6.35;;
75885;SDS011;64561;44.018;10.144;2023-03-01T10:22:52;9.00;;;6.43;;
75885;SDS011;64561;44.018;10.144;2023-03-01T10:28:20;8.45;;;5.88;;
75885;SDS011;64561;44.018;10.144;2023-03-01T10:30:49;7.28;;;4.72;;
75885;SDS011;64561;44.018;10.144;2023-03-01T10:33:37;7.72;;;4.20;;
75885;SDS011;64561;44.018;10.144;2023-03-01T10:36:06;8.43;;;4.45;;
75885;SDS011;64561;44.018;10.144;2023-03-01T10:38:50;7.53;;;4.68;;
75885;SDS011;64561;44.018;10.144;2023-03-01T10:41:20;9.00;;;5.90;;
75885;SDS011;64561;44.018;10.144;2023-03-01T10:46:21;10.90;;;5.82;;
75885;SDS011;64561;44.018;10.144;2023-03-01T10:49:15;8.70;;;6.18;;
75885;SDS011;64561;44.018;10.144;2023-03-01T10:51:44;10.60;;;7.60;;
75885;SDS011;64561;44.018;10.144;2023-03-01T10:54:20;10.88;;;7.43;;
75885;SDS011;64561;44.018;10.144;2023-03-01T10:56:52;13.98;;;8.65;;
75885;SDS011;64561;44.018;10.144;2023-03-01T10:59:25;10.13;;;6.70;;
75885;SDS011;64561;44.018;10.144;2023-03-01T11:07:23;13.25;;;8.77;;
75885;SDS011;64561;44.018;10.144;2023-03-01T11:09:50;15.52;;;9.70;;
75885;SDS011;64561;44.018;10.144;2023-03-01T11:12:17;13.30;;;7.53;;
75885;SDS011;64561;44.018;10.144;2023-03-01T11:14:48;11.23;;;7.32;;
75885;SDS011;64561;44.018;10.144;2023-03-01T11:17:38;8.65;;;6.25;;
75885;SDS011;64561;44.018;10.144;2023-03-01T11:20:36;10.27;;;6.82;;
75885;SDS011;64561;44.018;10.144;2023-03-01T11:23:05;10.40;;;6.78;;
75885;SDS011;64561;44.018;10.144;2023-03-01T11:25:37;9.75;;;5.60;;
75885;SDS011;64561;44.018;10.144;2023-03-01T11:28:10;11.88;;;7.32;;
75885;SDS011;64561;44.018;10.144;2023-03-01T11:30:55;9.32;;;6.88;;
75885;SDS011;64561;44.018;10.144;2023-03-01T11:39:12;73.57;;;38.58;;
75885;SDS011;64561;44.018;10.144;2023-03-01T11:41:47;57.97;;;28.40;;
75885;SDS011;64561;44.018;10.144;2023-03-01T11:44:20;17.98;;;11.18;;
75885;SDS011;64561;44.018;10.144;2023-03-01T11:47:07;17.27;;;11.15;;
75885;SDS011;64561;44.018;10.144;2023-03-01T12:06:56;18.33;;;11.77;;
75885;SDS011;64561;44.018;10.144;2023-03-01T12:09:39;20.23;;;14.05;;
75885;SDS011;64561;44.018;10.144;2023-03-01T12:26:02;13.35;;;9.52;;
75885;SDS011;64561;44.018;10.144;2023-03-01T12:28:49;13.48;;;8.77;;
75885;SDS011;64561;44.018;10.144;2023-03-01T12:47:50;10.73;;;7.13;;
75885;SDS011;64561;44.018;10.144;2023-03-01T12:50:41;10.63;;;7.45;;
75885;SDS011;64561;44.018;10.144;2023-03-01T12:53:15;9.18;;;6.22;;
75885;SDS011;64561;44.018;10.144;2023-03-01T12:55:50;8.85;;;6.10;;
75885;SDS011;64561;44.018;10.144;2023-03-01T12:58:23;9.27;;;6.35;;
75885;SDS011;64561;44.018;10.144;2023-03-01T13:04:02;8.13;;;5.45;;
75885;SDS011;64561;44.018;10.144;2023-03-01T13:06:45;8.50;;;6.13;;
75885;SDS011;64561;44.018;10.144;2023-03-01T13:11:51;9.05;;;6.93;;
75885;SDS011;64561;44.018;10.144;2023-03-01T13:16:49;17.50;;;10.55;;
75885;SDS011;64561;44.018;10.144;2023-03-01T13:19:20;29.20;;;19.17;;
75885;SDS011;64561;44.018;10.144;2023-03-01T13:21:53;35.15;;;21.13;;
75885;SDS011;64561;44.018;10.144;2023-03-01T13:36:00;15.13;;;9.90;;
75885;SDS011;64561;44.018;10.144;2023-03-01T13:44:24;11.52;;;7.38;;
75885;SDS011;64561;44.018;10.144;2023-03-01T13:57:44;19.25;;;12.10;;
75885;SDS011;64561;44.018;10.144;2023-03-01T14:03:00;14.77;;;11.10;;
75885;SDS011;64561;44.018;10.144;2023-03-01T14:05:32;15.48;;;11.45;;
75885;SDS011;64561;44.018;10.144;2023-03-01T14:08:00;22.30;;;12.68;;
75885;SDS011;64561;44.018;10.144;2023-03-01T14:10:29;22.88;;;13.02;;
75885;SDS011;64561;44.018;10.144;2023-03-01T14:13:18;15.85;;;11.43;;
75885;SDS011;64561;44.018;10.144;2023-03-01T14:16:09;13.48;;;9.23;;
75885;SDS011;64561;44.018;10.144;2023-03-01T14:22:04;11.65;;;8.88;;
75885;SDS011;64561;44.018;10.144;2023-03-01T14:24:51;10.13;;;7.32;;
75885;SDS011;64561;44.018;10.144;2023-03-01T14:27:36;10.48;;;8.27;;
75885;SDS011;64561;44.018;10.144;2023-03-01T14:30:10;12.60;;;9.27;;
75885;SDS011;64561;44.018;10.144;2023-03-01T14:32:41;10.63;;;7.82;;
75885;SDS011;64561;44.018;10.144;2023-03-01T14:35:21;11.27;;;7.10;;
75885;SDS011;64561;44.018;10.144;2023-03-01T14:37:50;11.75;;;7.15;;
75885;SDS011;64561;44.018;10.144;2023-03-01T14:40:22;11.95;;;7.97;;
75885;SDS011;64561;44.018;10.144;2023-03-01T14:42:51;10.07;;;6.18;;
75885;SDS011;64561;44.018;10.144;2023-03-01T14:45:19;9.70;;;6.28;;
75885;SDS011;64561;44.018;10.144;2023-03-01T14:47:46;10.27;;;7.25;;
75885;SDS011;64561;44.018;10.144;2023-03-01T14:50:18;14.27;;;9.55;;
75885;SDS011;64561;44.018;10.144;2023-03-01T14:52:49;12.93;;;8.20;;
75885;SDS011;64561;44.018;10.144;2023-03-01T14:55:26;11.30;;;6.93;;
75885;SDS011;64561;44.018;10.144;2023-03-01T14:57:55;9.65;;;7.05;;
75885;SDS011;64561;44.018;10.144;2023-03-01T15:00:27;10.20;;;8.05;;
75885;SDS011;64561;44.018;10.144;2023-03-01T15:02:56;8.63;;;6.43;;
75885;SDS011;64561;44.018;10.144;2023-03-01T15:05:30;8.38;;;6.03;;
75885;SDS011;64561;44.018;10.144;2023-03-01T15:07:58;9.10;;;5.70;;
75885;SDS011;64561;44.018;10.144;2023-03-01T15:10:32;11.93;;;5.80;;
75885;SDS011;64561;44.018;10.144;2023-03-01T15:13:14;6.07;;;4.50;;
75885;SDS011;64561;44.018;10.144;2023-03-01T15:15:48;5.93;;;4.20;;
75885;SDS011;64561;44.018;10.144;2023-03-01T15:18:21;9.02;;;5.80;;
75885;SDS011;64561;44.018;10.144;2023-03-01T15:20:52;10.23;;;6.50;;
75885;SDS011;64561;44.018;10.144;2023-03-01T15:23:24;9.45;;;6.95;;
75885;SDS011;64561;44.018;10.144;2023-03-01T15:25:54;8.65;;;6.03;;
75885;SDS011;64561;44.018;10.144;2023-03-01T15:28:25;7.60;;;5.40;;
75885;SDS011;64561;44.018;10.144;2023-03-01T15:31:40;7.68;;;5.30;;
75885;SDS011;64561;44.018;10.144;2023-03-01T15:33:41;7.85;;;5.53;;
75885;SDS011;64561;44.018;10.144;2023-03-01T15:38:59;8.75;;;6.18;;
75885;SDS011;64561;44.018;10.144;2023-03-01T15:43:58;9.88;;;6.13;;
75885;SDS011;64561;44.018;10.144;2023-03-01T15:46:32;9.00;;;5.30;;
75885;SDS011;64561;44.018;10.144;2023-03-01T15:49:05;18.23;;;6.78;;
75885;SDS011;64561;44.018;10.144;2023-03-01T15:51:51;7.72;;;5.25;;
75885;SDS011;64561;44.018;10.144;2023-03-01T15:54:22;8.07;;;4.72;;
75885;SDS011;64561;44.018;10.144;2023-03-01T15:56:51;8.27;;;5.05;;
75885;SDS011;64561;44.018;10.144;2023-03-01T15:59:18;10.20;;;5.63;;
75885;SDS011;64561;44.018;10.144;2023-03-01T16:01:45;8.18;;;5.05;;
75885;SDS011;64561;44.018;10.144;2023-03-01T16:04:16;8.98;;;6.28;;
75885;SDS011;64561;44.018;10.144;2023-03-01T16:06:49;7.88;;;5.30;;
75885;SDS011;64561;44.018;10.144;2023-03-01T16:09:23;8.52;;;5.65;;
75885;SDS011;64561;44.018;10.144;2023-03-01T16:11:52;9.70;;;6.15;;
75885;SDS011;64561;44.018;10.144;2023-03-01T16:14:19;10.68;;;7.40;;
75885;SDS011;64561;44.018;10.144;2023-03-01T16:16:47;8.55;;;6.20;;
75885;SDS011;64561;44.018;10.144;2023-03-01T16:19:15;9.77;;;6.03;;
75885;SDS011;64561;44.018;10.144;2023-03-01T16:21:42;8.38;;;5.25;;
75885;SDS011;64561;44.018;10.144;2023-03-01T16:24:10;9.57;;;5.85;;
75885;SDS011;64561;44.018;10.144;2023-03-01T16:26:37;7.25;;;5.03;;
75885;SDS011;64561;44.018;10.144;2023-03-01T16:29:04;8.98;;;6.10;;
75885;SDS011;64561;44.018;10.144;2023-03-01T16:31:31;12.45;;;6.35;;
75885;SDS011;64561;44.018;10.144;2023-03-01T16:33:59;11.77;;;7.80;;
75885;SDS011;64561;44.018;10.144;2023-03-01T16:36:26;10.18;;;8.15;;
75885;SDS011;64561;44.018;10.144;2023-03-01T16:38:57;11.27;;;7.53;;
75885;SDS011;64561;44.018;10.144;2023-03-01T16:41:26;10.00;;;6.40;;
75885;SDS011;64561;44.018;10.144;2023-03-01T16:43:54;12.25;;;7.07;;
75885;SDS011;64561;44.018;10.144;2023-03-01T16:46:22;11.48;;;8.15;;
75885;SDS011;64561;44.018;10.144;2023-03-01T16:48:51;14.95;;;8.48;;
75885;SDS011;64561;44.018;10.144;2023-03-01T16:51:18;18.15;;;10.50;;
75885;SDS011;64561;44.018;10.144;2023-03-01T16:53:46;18.05;;;10.23;;
75885;SDS011;64561;44.018;10.144;2023-03-01T16:56:13;16.50;;;11.40;;
75885;SDS011;64561;44.018;10.144;2023-03-01T16:58:40;17.92;;;11.02;;
75885;SDS011;64561;44.018;10.144;2023-03-01T17:01:08;20.00;;;9.88;;
75885;SDS011;64561;44.018;10.144;2023-03-01T17:03:46;12.35;;;8.65;;
75885;SDS011;64561;44.018;10.144;2023-03-01T17:06:16;13.60;;;9.13;;
75885;SDS011;64561;44.018;10.144;2023-03-01T17:08:46;17.13;;;10.52;;
75885;SDS011;64561;44.018;10.144;2023-03-01T17:11:14;17.48;;;12.68;;
75885;SDS011;64561;44.018;10.144;2023-03-01T17:13:43;20.85;;;13.75;;
75885;SDS011;64561;44.018;10.144;2023-03-01T17:16:12;20.50;;;15.13;;